Time;durP1;ratioP1;P1;durP2;ratioP2;P2;SDS_P1;SDS_P2;PMS_P1;PMS_P2;Temp;Humidity;BMP_temperature;BMP_pressure;BME280_temperature;BME280_humidity;BME280_pressure;Samples;Min_cycle;Max_cycle;Signal;HPM_P1;HPM_P2
2021/12/22 00:00:12;;;;;;;79.03;36.45;;;-6.30;99.90;;;;;;6191071;23;20068;-82
2021/12/22 00:03:00;;;;;;;75.82;36.33;;;-6.30;99.90;;;;;;6212613;23;20438;-83
2021/12/22 00:05:52;;;;;;;73.95;35.70;;;-6.40;99.90;;;;;;6172074;23;20035;-83
2021/12/22 00:08:39;;;;;;;58.30;27.00;;;-6.40;99.90;;;;;;6192466;23;20033;-83
2021/12/22 00:11:30;;;;;;;78.32;36.40;;;-6.40;99.90;;;;;;6193992;23;20302;-82
2021/12/22 00:14:20;;;;;;;80.45;36.17;;;-6.30;99.90;;;;;;6193591;23;20535;-82
2021/12/22 00:17:07;;;;;;;77.40;36.13;;;-6.30;99.90;;;;;;6173519;23;20056;-84
2021/12/22 00:19:57;;;;;;;75.90;34.90;;;-6.30;99.90;;;;;;6190883;23;20099;-81
2021/12/22 00:22:47;;;;;;;83.78;36.30;;;-6.30;99.90;;;;;;6192103;23;20032;-81
2021/12/22 00:25:35;;;;;;;77.18;36.47;;;-6.30;99.90;;;;;;6193514;23;20040;-83
2021/12/22 00:28:23;;;;;;;74.82;33.95;;;-6.30;99.90;;;;;;6172936;23;20036;-82
2021/12/22 00:31:14;;;;;;;68.38;35.45;;;-6.30;99.90;;;;;;6172783;23;20112;-81
2021/12/22 00:34:03;;;;;;;69.20;32.80;;;-6.30;99.90;;;;;;6192487;23;20416;-82
2021/12/22 00:36:53;;;;;;;66.47;33.42;;;-6.40;99.90;;;;;;6192791;23;20043;-81
2021/12/22 00:39:40;;;;;;;80.30;33.80;;;-6.40;99.90;;;;;;6193097;23;20069;-82
2021/12/22 00:42:28;;;;;;;67.85;33.70;;;-6.50;99.90;;;;;;6213748;23;20127;-82
2021/12/22 00:45:23;;;;;;;73.60;33.08;;;-6.50;99.90;;;;;;6171124;23;20131;-82
2021/12/22 00:48:11;;;;;;;64.93;32.20;;;-6.50;99.90;;;;;;6174286;23;20029;-82
2021/12/22 00:51:01;;;;;;;69.43;33.72;;;-6.60;99.90;;;;;;6212973;23;20032;-82
2021/12/22 00:53:49;;;;;;;73.45;32.78;;;-6.60;99.90;;;;;;6192629;23;20025;-81
2021/12/22 00:56:37;;;;;;;67.55;33.38;;;-6.60;99.90;;;;;;6193652;23;20033;-82
2021/12/22 00:59:25;;;;;;;71.05;35.17;;;-6.60;99.90;;;;;;6172231;23;20032;-83
2021/12/22 01:02:15;;;;;;;73.72;34.05;;;-6.60;99.90;;;;;;6170956;23;20124;-83
2021/12/22 01:05:07;;;;;;;68.88;31.60;;;-6.60;99.90;;;;;;6194223;23;20129;-81
2021/12/22 01:07:55;;;;;;;73.25;32.03;;;-6.60;99.90;;;;;;6215467;23;20039;-84
2021/12/22 01:10:42;;;;;;;66.93;31.25;;;-6.70;99.90;;;;;;6196219;23;20030;-83
2021/12/22 01:13:30;;;;;;;71.93;32.50;;;-6.70;99.90;;;;;;6216752;23;20082;-83
2021/12/22 01:16:18;;;;;;;73.85;33.20;;;-6.70;99.90;;;;;;6173565;23;20028;-83
2021/12/22 01:19:12;;;;;;;70.40;31.92;;;-6.80;99.90;;;;;;6172713;23;20123;-83
2021/12/22 01:22:09;;;;;;;75.07;32.35;;;-6.80;99.90;;;;;;6176868;23;20335;-82
2021/12/22 01:25:01;;;;;;;69.18;31.02;;;-6.80;99.90;;;;;;6215439;23;20025;-82
2021/12/22 01:27:49;;;;;;;78.55;35.20;;;-6.80;99.90;;;;;;6195081;23;20406;-81
2021/12/22 01:30:43;;;;;;;68.53;31.38;;;-6.80;99.90;;;;;;6209619;23;20415;-82
2021/12/22 01:33:33;;;;;;;70.25;31.75;;;-6.70;99.90;;;;;;6188401;23;20041;-82
2021/12/22 01:36:21;;;;;;;70.03;33.08;;;-6.80;99.90;;;;;;6187060;23;20028;-81
2021/12/22 01:39:11;;;;;;;71.93;33.10;;;-6.80;99.90;;;;;;6209009;23;20031;-81
2021/12/22 01:41:58;;;;;;;67.55;31.83;;;-6.80;99.90;;;;;;6219007;23;20028;-82
2021/12/22 01:51:03;;;;;;;68.13;30.27;;;-6.90;99.90;;;;;;6222042;23;20030;-82
2021/12/22 01:53:58;;;;;;;69.50;30.65;;;-6.90;99.90;;;;;;6214586;23;20477;-83
2021/12/22 01:56:47;;;;;;;59.80;29.77;;;-7.00;99.90;;;;;;6212253;23;20047;-81
2021/12/22 01:59:37;;;;;;;56.85;27.95;;;-7.00;99.90;;;;;;6235097;23;20387;-82
2021/12/22 02:02:28;;;;;;;74.88;30.48;;;-7.00;99.90;;;;;;6230571;23;20085;-80
2021/12/22 02:05:16;;;;;;;69.95;30.30;;;-7.10;99.90;;;;;;6217660;23;20052;-81
2021/12/22 02:08:07;;;;;;;68.88;32.05;;;-7.00;99.90;;;;;;6236192;23;20024;-82
2021/12/22 02:10:57;;;;;;;62.75;31.27;;;-7.00;99.90;;;;;;6197078;23;20082;-82
2021/12/22 02:13:51;;;;;;;67.85;31.17;;;-7.10;99.90;;;;;;6215214;23;20012;-81
2021/12/22 02:16:40;;;;;;;66.70;28.85;;;-7.10;99.90;;;;;;6212866;23;20024;-82
2021/12/22 02:19:27;;;;;;;74.95;32.50;;;-7.10;99.90;;;;;;6189792;23;20082;-84
2021/12/22 02:22:17;;;;;;;64.68;29.27;;;-7.10;99.90;;;;;;6192631;23;20008;-83
2021/12/22 02:25:12;;;;;;;71.00;31.02;;;-7.20;99.90;;;;;;6240102;23;20246;-81
2021/12/22 02:28:05;;;;;;;71.18;30.77;;;-7.30;99.90;;;;;;6198960;23;20008;-82
2021/12/22 02:30:55;;;;;;;61.47;29.77;;;-7.30;99.90;;;;;;6194402;23;20024;-84
2021/12/22 02:33:48;;;;;;;68.82;29.73;;;-7.30;99.90;;;;;;6168308;23;20024;-82
2021/12/22 02:36:39;;;;;;;;;;;-7.40;99.90;;;;;;6208579;23;20029;-82
2021/12/22 02:39:31;;;;;;;58.75;27.35;;;-7.40;99.90;;;;;;6209023;23;19916;-82
2021/12/22 02:42:24;;;;;;;68.75;29.58;;;-7.30;99.90;;;;;;6209072;23;20075;-82
2021/12/22 02:45:17;;;;;;;60.70;29.70;;;-7.40;99.90;;;;;;6180763;23;20076;-82
2021/12/22 02:48:08;;;;;;;59.05;29.40;;;-7.30;99.90;;;;;;6220355;23;20082;-83
2021/12/22 02:50:57;;;;;;;67.93;30.67;;;-7.30;99.90;;;;;;6199853;23;20091;-83
2021/12/22 02:54:02;;;;;;;71.40;32.63;;;-7.30;99.90;;;;;;6198093;23;20079;-83
2021/12/22 02:56:55;;;;;;;68.28;31.75;;;-7.20;99.90;;;;;;6218126;23;20100;-82
2021/12/22 03:00:06;;;;;;;65.82;30.95;;;-7.20;99.90;;;;;;6192591;23;20032;-84
2021/12/22 03:03:13;;;;;;;64.93;30.52;;;-7.20;99.90;;;;;;6195276;23;20025;-82
2021/12/22 03:06:07;;;;;;;69.90;32.72;;;-7.30;99.90;;;;;;6192855;23;20391;-83
2021/12/22 03:08:54;;;;;;;70.35;30.98;;;-7.30;99.90;;;;;;6191425;23;20024;-83
2021/12/22 03:11:43;;;;;;;69.55;31.13;;;-7.30;99.90;;;;;;6213744;23;20309;-83
2021/12/22 03:14:33;;;;;;;66.95;30.63;;;-7.30;99.90;;;;;;6214635;23;20035;-83
2021/12/22 03:17:21;;;;;;;61.97;30.10;;;-7.30;99.90;;;;;;6192157;23;20286;-83
2021/12/22 03:20:14;;;;;;;67.57;30.70;;;-7.30;99.90;;;;;;6192917;23;20479;-82
2021/12/22 03:23:05;;;;;;;62.30;28.48;;;-7.30;99.90;;;;;;6192909;23;20381;-83
2021/12/22 03:25:58;;;;;;;69.03;30.50;;;-7.40;99.90;;;;;;6170800;23;20123;-83
2021/12/22 03:28:46;;;;;;;63.72;29.73;;;-7.40;99.90;;;;;;6173342;23;20430;-81
2021/12/22 03:31:33;;;;;;;60.45;29.73;;;-7.40;99.90;;;;;;6190948;23;20039;-81
2021/12/22 03:34:21;;;;;;;61.33;29.80;;;-7.50;99.90;;;;;;6172015;23;20025;-82
2021/12/22 03:37:10;;;;;;;66.70;30.15;;;-7.50;99.90;;;;;;6191674;23;20032;-82
2021/12/22 03:39:57;;;;;;;64.93;29.50;;;-7.50;99.90;;;;;;6192688;23;20028;-82
2021/12/22 03:42:45;;;;;;;65.20;28.80;;;-7.50;99.90;;;;;;6172048;23;20028;-82
2021/12/22 03:45:33;;;;;;;61.05;27.52;;;-7.50;99.90;;;;;;6213795;23;20428;-83
2021/12/22 03:48:24;;;;;;;57.90;27.77;;;-7.50;99.90;;;;;;6172468;23;20020;-83
2021/12/22 03:51:12;;;;;;;64.82;29.75;;;-7.50;99.90;;;;;;6190937;23;20020;-82
2021/12/22 03:54:00;;;;;;;62.25;28.52;;;-7.50;99.90;;;;;;6191061;23;20036;-83
2021/12/22 03:56:50;;;;;;;63.00;28.75;;;-7.50;99.90;;;;;;6172639;23;20423;-82
2021/12/22 03:59:42;;;;;;;57.97;28.50;;;-7.50;99.90;;;;;;6192961;23;20032;-82
2021/12/22 04:02:32;;;;;;;70.35;30.33;;;-7.50;99.90;;;;;;6189602;23;20051;-84
2021/12/22 04:05:19;;;;;;;69.63;29.85;;;-7.50;99.90;;;;;;6172612;23;20035;-85
2021/12/22 04:08:07;;;;;;;59.60;28.17;;;-7.50;99.90;;;;;;6191482;23;20060;-83
2021/12/22 04:10:57;;;;;;;67.28;31.10;;;-7.60;99.90;;;;;;6172156;23;20035;-83
2021/12/22 04:13:45;;;;;;;66.22;29.63;;;-7.60;99.90;;;;;;6213101;23;20082;-82
2021/12/22 04:16:33;;;;;;;65.47;28.55;;;-7.60;99.90;;;;;;6171929;23;20076;-83
2021/12/22 04:19:20;;;;;;;71.07;30.90;;;-7.60;99.90;;;;;;6190749;23;20028;-83
2021/12/22 04:22:08;;;;;;;64.65;29.75;;;-7.60;99.90;;;;;;6191334;23;20029;-82
2021/12/22 04:24:55;;;;;;;63.83;29.70;;;-7.50;99.90;;;;;;6172386;23;20032;-83
2021/12/22 04:27:43;;;;;;;61.75;29.70;;;-7.60;99.90;;;;;;6191647;23;20032;-82
2021/12/22 04:30:33;;;;;;;64.20;29.63;;;-7.60;99.90;;;;;;6170214;23;20024;-83
2021/12/22 04:33:21;;;;;;;58.92;28.33;;;-7.60;99.90;;;;;;6190515;23;20057;-82
2021/12/22 04:36:12;;;;;;;66.43;30.88;;;-7.70;99.90;;;;;;6194507;23;20088;-83
2021/12/22 04:39:00;;;;;;;73.38;32.25;;;-7.60;99.90;;;;;;6170169;23;20021;-84
2021/12/22 04:41:48;;;;;;;64.93;30.58;;;-7.60;99.90;;;;;;6213589;23;20455;-83
2021/12/22 04:44:37;;;;;;;65.00;30.83;;;-7.50;99.90;;;;;;6194039;23;20118;-84
2021/12/22 04:47:25;;;;;;;60.95;29.45;;;-7.50;99.90;;;;;;6173779;23;20024;-84
2021/12/22 04:50:16;;;;;;;68.15;31.95;;;-7.60;99.90;;;;;;6213695;23;20035;-83
2021/12/22 04:53:15;;;;;;;60.83;29.93;;;-7.60;99.90;;;;;;6194336;23;20103;-84
2021/12/22 04:56:02;;;;;;;69.20;28.92;;;-7.70;99.90;;;;;;6174990;23;20087;-82
2021/12/22 04:58:53;;;;;;;58.58;27.75;;;-7.60;99.90;;;;;;6194427;23;20048;-83
2021/12/22 05:05:48;;;;;;;59.03;27.50;;;-7.60;99.90;;;;;;6213675;23;20012;-84
2021/12/22 05:08:38;;;;;;;70.40;27.85;;;-7.70;99.90;;;;;;6213611;23;20028;-81
2021/12/22 05:11:28;;;;;;;54.78;27.58;;;-7.60;99.90;;;;;;6194935;23;20114;-84
2021/12/22 05:14:16;;;;;;;58.17;28.35;;;-7.70;99.90;;;;;;6172796;23;20028;-83
2021/12/22 05:17:05;;;;;;;59.17;27.65;;;-7.70;99.90;;;;;;6172544;23;20023;-83
2021/12/22 05:19:54;;;;;;;63.63;29.20;;;-7.60;99.90;;;;;;6193506;23;20020;-83
2021/12/22 05:22:42;;;;;;;58.78;28.13;;;-7.60;99.90;;;;;;6212085;23;20114;-83
2021/12/22 05:25:29;;;;;;;57.28;27.83;;;-7.70;99.90;;;;;;6192963;23;20131;-83
2021/12/22 05:28:17;;;;;;;53.28;28.08;;;-7.70;99.90;;;;;;6193110;23;20057;-83
2021/12/22 05:31:04;;;;;;;63.72;28.17;;;-7.70;99.90;;;;;;6173426;23;20024;-84
2021/12/22 05:33:51;;;;;;;56.30;28.73;;;-7.70;99.90;;;;;;6173012;23;20024;-84
2021/12/22 05:36:39;;;;;;;60.20;27.92;;;-7.80;99.90;;;;;;6192874;23;20024;-83
2021/12/22 05:39:28;;;;;;;54.78;26.98;;;-7.80;99.90;;;;;;6191298;23;20123;-82
2021/12/22 05:42:16;;;;;;;58.53;28.58;;;-7.80;99.90;;;;;;6194176;23;20328;-83
2021/12/22 05:45:05;;;;;;;60.00;28.08;;;-7.80;99.90;;;;;;6194221;23;20025;-83
2021/12/22 05:47:53;;;;;;;58.30;29.05;;;-7.70;99.90;;;;;;6191475;23;20486;-83
2021/12/22 06:23:33;;;;;;;58.95;29.25;;;-7.80;99.90;;;;;;6183255;23;20448;-80
2021/12/22 06:26:22;;;;;;;64.60;29.90;;;-7.70;99.90;;;;;;6181243;23;20025;-80
2021/12/22 06:29:11;;;;;;;64.15;29.73;;;-7.70;99.90;;;;;;6181306;23;20021;-81
2021/12/22 06:31:59;;;;;;;58.22;27.67;;;-7.80;99.90;;;;;;6161035;23;20021;-83
2021/12/22 06:34:49;;;;;;;64.95;28.80;;;-7.80;99.90;;;;;;6161320;23;20029;-84
2021/12/22 06:37:45;;;;;;;56.35;27.63;;;-7.80;99.90;;;;;;6140593;23;20040;-84
2021/12/22 06:40:38;;;;;;;60.78;29.25;;;-7.80;99.90;;;;;;6164659;23;20124;-85
2021/12/22 06:43:25;;;;;;;52.90;26.35;;;-7.80;99.90;;;;;;6144083;23;20029;-85
2021/12/22 06:46:15;;;;;;;54.38;27.08;;;-7.80;99.90;;;;;;6184834;23;20031;-83
2021/12/22 06:49:02;;;;;;;58.63;27.33;;;-7.80;99.90;;;;;;6145578;23;20083;-84
2021/12/22 06:51:52;;;;;;;54.67;27.67;;;-7.80;99.90;;;;;;6162577;23;20401;-83
2021/12/22 06:54:39;;;;;;;53.83;26.90;;;-7.90;99.90;;;;;;6145554;23;20021;-81
2021/12/22 06:57:32;;;;;;;61.30;27.33;;;-7.90;99.90;;;;;;6184604;23;20021;-80
2021/12/22 07:00:20;;;;;;;58.60;27.75;;;-7.90;99.90;;;;;;6163197;23;20039;-82
2021/12/22 07:03:10;;;;;;;55.95;27.85;;;-7.90;99.90;;;;;;6198547;23;20408;-83
2021/12/22 07:06:02;;;;;;;64.90;30.23;;;-7.90;99.90;;;;;;6194461;23;20518;-81
2021/12/22 07:08:59;;;;;;;73.55;32.00;;;-7.80;99.90;;;;;;6199533;23;20043;-81
2021/12/22 07:11:58;;;;;;;68.10;30.52;;;-7.70;99.90;;;;;;6213372;23;20104;-81
2021/12/22 07:14:46;;;;;;;66.93;31.63;;;-7.70;99.90;;;;;;6192093;23;20051;-80
2021/12/22 07:17:37;;;;;;;74.90;35.50;;;-7.50;99.90;;;;;;6212971;23;20052;-82
2021/12/22 07:20:28;;;;;;;70.95;33.90;;;-7.30;99.90;;;;;;6212358;23;20099;-81
2021/12/22 07:23:16;;;;;;;71.53;34.72;;;-7.10;99.90;;;;;;6211097;23;20032;-81
2021/12/22 07:26:07;;;;;;;77.68;34.65;;;-7.00;99.90;;;;;;6211705;23;20040;-81
2021/12/22 07:28:54;;;;;;;80.20;34.00;;;-6.90;99.90;;;;;;6212723;23;20028;-81
2021/12/22 07:31:42;;;;;;;78.15;34.25;;;-6.90;99.90;;;;;;6212321;23;20028;-80
2021/12/22 07:34:46;;;;;;;84.95;37.08;;;-6.90;99.90;;;;;;6192037;23;20086;-82
2021/12/22 07:37:46;;;;;;;76.25;35.00;;;-6.80;99.90;;;;;;6212950;23;20089;-79
2021/12/22 07:40:36;;;;;;;81.80;36.08;;;-6.80;99.90;;;;;;6211998;23;20043;-81
2021/12/22 07:43:26;;;;;;;75.50;35.95;;;-6.80;99.90;;;;;;6212325;23;20051;-81
2021/12/22 07:46:14;;;;;;;85.53;35.78;;;-6.80;99.90;;;;;;6213219;23;20053;-80
2021/12/22 07:49:01;;;;;;;77.57;34.92;;;-6.80;99.90;;;;;;6213013;23;20039;-80
2021/12/22 07:51:49;;;;;;;77.45;34.10;;;-6.80;99.90;;;;;;6210705;23;20115;-83
2021/12/22 07:54:38;;;;;;;80.20;34.00;;;-6.80;99.90;;;;;;6211593;23;20415;-82
2021/12/22 07:57:26;;;;;;;80.63;36.17;;;-6.70;99.90;;;;;;6213753;23;20020;-80
2021/12/22 08:00:14;;;;;;;90.13;39.40;;;-6.60;99.90;;;;;;6191162;23;20605;-83
2021/12/22 08:03:01;;;;;;;85.57;40.58;;;-6.50;99.90;;;;;;6211385;23;20520;-82
2021/12/22 08:06:08;;;;;;;95.72;40.25;;;-6.30;99.90;;;;;;6219912;23;20080;-81
2021/12/22 08:08:55;;;;;;;91.30;40.67;;;-6.10;99.90;;;;;;6226474;23;20036;-83
2021/12/22 08:11:53;;;;;;;84.30;39.70;;;-5.90;99.90;;;;;;6225345;23;20028;-82
2021/12/22 08:14:41;;;;;;;86.95;41.15;;;-5.70;99.90;;;;;;6220286;23;20024;-81
2021/12/22 08:17:30;;;;;;;93.18;39.97;;;-5.50;99.90;;;;;;6219382;23;20036;-79
2021/12/22 08:20:22;;;;;;;77.35;38.40;;;-5.40;99.90;;;;;;6225088;23;20415;-81
2021/12/22 08:23:09;;;;;;;60.17;28.40;;;-5.30;99.90;;;;;;6219870;23;20028;-82
2021/12/22 08:25:59;;;;;;;79.10;36.83;;;-5.10;99.90;;;;;;6224213;23;20348;-82
2021/12/22 08:28:49;;;;;;;83.10;38.63;;;-5.00;99.90;;;;;;6218412;23;20108;-84
2021/12/22 08:31:36;;;;;;;80.00;40.10;;;-4.80;99.90;;;;;;6198670;23;20040;-84
2021/12/22 08:34:37;;;;;;;78.10;38.30;;;-4.50;99.90;;;;;;6215998;23;20020;-83
2021/12/22 08:40:46;;;;;;;69.32;34.42;;;-4.30;99.90;;;;;;6177986;23;20027;-82
2021/12/22 08:43:33;;;;;;;64.57;33.47;;;-4.20;99.90;;;;;;6210662;23;20613;-81
2021/12/22 08:46:25;;;;;;;70.32;34.33;;;-4.20;99.90;;;;;;6214166;23;20025;-82
2021/12/22 08:49:14;;;;;;;73.97;35.40;;;-4.20;99.90;;;;;;6211280;23;20039;-81
2021/12/22 08:52:03;;;;;;;74.13;35.53;;;-4.00;99.90;;;;;;6215041;23;20034;-82
2021/12/22 08:54:50;;;;;;;68.05;35.08;;;-3.80;99.90;;;;;;6214433;23;20031;-82
2021/12/22 08:57:41;;;;;;;67.32;34.90;;;-3.70;99.90;;;;;;6213552;23;20024;-81
2021/12/22 09:00:31;;;;;;;65.68;33.38;;;-3.60;99.90;;;;;;6215961;23;20025;-82
2021/12/22 09:03:20;;;;;;;67.55;35.20;;;-3.30;99.90;;;;;;6204138;23;20144;-81
2021/12/22 09:06:08;;;;;;;77.90;38.65;;;-3.20;99.90;;;;;;6224142;23;20048;-82
2021/12/22 09:08:58;;;;;;;73.20;37.38;;;-2.90;99.90;;;;;;6221283;23;20028;-82
2021/12/22 09:11:47;;;;;;;69.63;34.08;;;-2.60;99.90;;;;;;6215535;23;20463;-81
2021/12/22 09:14:37;;;;;;;59.40;31.85;;;-2.60;99.90;;;;;;6202980;23;20024;-80
2021/12/22 09:17:24;;;;;;;60.42;31.77;;;-2.70;99.90;;;;;;6222670;23;20024;-81
2021/12/22 09:20:13;;;;;;;57.55;31.92;;;-2.60;99.90;;;;;;6227181;23;20159;-81
2021/12/22 09:23:00;;;;;;;51.67;30.50;;;-2.40;99.90;;;;;;6216364;23;20447;-81
2021/12/22 09:25:49;;;;;;;58.05;30.15;;;-2.30;99.90;;;;;;6198653;23;20044;-82
2021/12/22 09:28:36;;;;;;;54.78;31.20;;;-2.10;99.90;;;;;;6193407;23;20043;-79
2021/12/22 09:31:24;;;;;;;64.53;33.35;;;-1.50;99.90;;;;;;6213869;23;20032;-81
2021/12/22 09:34:12;;;;;;;52.70;30.67;;;-0.70;99.90;;;;;;6214138;23;20024;-80
2021/12/22 09:37:00;;;;;;;43.58;26.30;;;0.50;99.90;;;;;;6213783;23;20029;-79
2021/12/22 09:39:49;;;;;;;34.03;20.55;;;1.40;99.90;;;;;;6214732;23;20389;-81
2021/12/22 09:42:37;;;;;;;31.52;19.50;;;2.20;99.90;;;;;;6191678;23;20032;-83
2021/12/22 09:45:27;;;;;;;27.23;18.02;;;3.00;99.90;;;;;;6209896;23;20035;-82
2021/12/22 09:53:55;;;;;;;24.80;16.83;;;4.70;94.40;;;;;;6215033;23;20436;-82
2021/12/22 09:56:42;;;;;;;23.02;17.08;;;5.40;91.40;;;;;;6214226;23;20024;-82
2021/12/22 09:59:31;;;;;;;24.10;17.15;;;5.40;84.80;;;;;;6212495;23;20116;-82
2021/12/22 10:02:25;;;;;;;25.02;16.40;;;5.20;83.30;;;;;;6213235;23;20036;-81
2021/12/22 10:05:20;;;;;;;24.75;17.20;;;5.50;82.10;;;;;;6213088;23;20503;-82
2021/12/22 10:08:13;;;;;;;25.40;17.08;;;5.80;80.70;;;;;;6214000;23;20119;-83
2021/12/22 10:11:05;;;;;;;25.10;16.17;;;6.00;76.70;;;;;;6212728;23;20037;-80
2021/12/22 10:13:53;;;;;;;;;;;6.00;75.40;;;;;;6213521;23;20032;-81
2021/12/22 10:16:46;;;;;;;20.60;15.20;;;6.00;73.00;;;;;;6209718;23;20019;-81
2021/12/22 10:19:47;;;;;;;22.50;15.35;;;6.10;72.50;;;;;;6216935;23;20103;-82
2021/12/22 10:22:51;;;;;;;23.08;15.77;;;6.40;70.60;;;;;;6212489;23;20039;-79
2021/12/22 10:25:41;;;;;;;22.00;15.32;;;6.40;70.80;;;;;;6215813;23;20380;-80
2021/12/22 10:28:44;;;;;;;19.70;14.25;;;6.10;70.30;;;;;;6213177;23;20032;-80
2021/12/22 10:31:44;;;;;;;20.35;15.02;;;6.10;69.70;;;;;;6215751;23;20455;-81
2021/12/22 10:34:33;;;;;;;21.88;15.05;;;6.70;67.30;;;;;;6214975;23;20079;-82
2021/12/22 10:37:31;;;;;;;22.52;14.85;;;6.70;67.10;;;;;;6214676;23;20034;-81
2021/12/22 10:40:33;;;;;;;16.95;13.15;;;7.10;65.50;;;;;;6213877;23;20098;-81
2021/12/22 10:43:29;;;;;;;18.90;13.75;;;7.30;65.40;;;;;;6214926;23;20021;-82
2021/12/22 10:46:26;;;;;;;19.95;14.25;;;7.80;61.80;;;;;;6214661;23;20059;-81
2021/12/22 10:49:21;;;;;;;19.38;14.13;;;8.10;60.90;;;;;;6214423;23;20028;-79
2021/12/22 10:52:09;;;;;;;18.42;14.00;;;8.60;58.40;;;;;;6216334;23;20124;-82
2021/12/22 10:55:17;;;;;;;17.30;13.73;;;8.40;58.50;;;;;;6216560;23;20020;-82
2021/12/22 10:58:34;;;;;;;20.85;15.07;;;7.70;59.90;;;;;;6196297;23;20041;-83
2021/12/22 11:01:21;;;;;;;19.10;14.18;;;7.30;61.50;;;;;;6219872;23;20108;-83
2021/12/22 11:04:15;;;;;;;22.02;14.77;;;7.00;61.50;;;;;;6196585;23;20024;-81
2021/12/22 11:07:13;;;;;;;22.13;14.75;;;7.00;60.40;;;;;;6217160;23;20025;-81
2021/12/22 11:10:02;;;;;;;21.90;14.02;;;7.00;60.60;;;;;;6216594;23;20032;-82
2021/12/22 11:13:03;;;;;;;20.25;14.40;;;7.30;60.50;;;;;;6214863;23;20029;-82
2021/12/22 11:15:53;;;;;;;17.52;13.80;;;7.70;59.00;;;;;;6213733;23;20028;-83
2021/12/22 11:18:41;;;;;;;19.95;14.18;;;7.30;59.60;;;;;;6213163;23;20043;-81
2021/12/22 11:21:34;;;;;;;18.05;14.23;;;7.50;59.80;;;;;;6193164;23;20087;-82
2021/12/22 11:24:21;;;;;;;21.58;15.68;;;7.30;60.10;;;;;;6194336;23;20028;-81
2021/12/22 11:27:10;;;;;;;20.38;14.73;;;7.40;59.50;;;;;;6213298;23;20396;-81
2021/12/22 11:29:58;;;;;;;18.80;13.57;;;7.50;59.20;;;;;;6215117;23;20020;-83
2021/12/22 11:32:48;;;;;;;20.52;13.88;;;7.60;59.20;;;;;;6212013;23;20099;-82
2021/12/22 11:35:39;;;;;;;19.45;14.52;;;7.80;58.50;;;;;;6211438;23;20028;-79
2021/12/22 11:38:32;;;;;;;18.90;14.50;;;7.40;58.60;;;;;;6196219;23;20051;-82
2021/12/22 11:41:20;;;;;;;23.10;15.40;;;7.00;58.90;;;;;;6192858;23;20024;-81
2021/12/22 11:44:10;;;;;;;19.00;13.57;;;7.10;59.10;;;;;;6212241;23;20024;-80
2021/12/22 11:47:18;;;;;;;19.67;14.30;;;7.50;59.10;;;;;;6211318;23;20424;-80
2021/12/22 11:50:07;;;;;;;19.40;15.07;;;8.00;57.60;;;;;;6213474;23;20060;-80
2021/12/22 11:53:08;;;;;;;21.80;14.18;;;8.10;57.80;;;;;;6214324;23;20036;-78
2021/12/22 11:56:00;;;;;;;;;;;8.50;55.00;;;;;;6212794;23;20032;-82
2021/12/22 11:58:52;;;;;;;21.73;14.63;;;7.70;57.20;;;;;;6189879;23;20003;-80
2021/12/22 12:02:46;;;;;;;20.00;15.07;;;8.10;57.30;;;;;;6198370;23;20021;-80
2021/12/22 12:05:37;;;;;;;20.90;14.88;;;8.00;56.80;;;;;;6131830;23;20061;-82
2021/12/22 12:08:54;;;;;;;19.17;13.90;;;8.70;56.00;;;;;;6160147;23;20124;-81
2021/12/22 12:11:49;;;;;;;20.33;14.10;;;9.20;53.80;;;;;;6155711;23;20033;-80
2021/12/22 12:24:38;;;;;;;19.40;13.93;;;8.70;56.30;;;;;;6078861;23;20038;-82
2021/12/22 12:27:38;;;;;;;20.73;14.27;;;8.90;54.80;;;;;;6086902;23;20027;-82
2021/12/22 12:30:54;;;;;;;21.52;15.07;;;8.70;55.30;;;;;;6158396;23;20028;-82
2021/12/22 12:33:45;;;;;;;25.20;16.52;;;8.20;56.40;;;;;;6179171;23;20044;-81
2021/12/22 12:36:39;;;;;;;22.60;15.65;;;8.20;56.00;;;;;;6159618;23;20021;-83
2021/12/22 12:39:55;;;;;;;23.20;14.70;;;8.00;56.80;;;;;;6136281;23;20240;-83
2021/12/22 12:43:01;;;;;;;21.48;15.38;;;8.30;56.50;;;;;;6160646;23;20033;-80
2021/12/22 12:45:53;;;;;;;19.90;14.30;;;8.60;55.20;;;;;;6139566;23;20044;-82
2021/12/22 12:48:41;;;;;;;22.08;15.00;;;8.60;55.60;;;;;;6140890;23;20032;-80
2021/12/22 12:51:36;;;;;;;19.63;14.25;;;8.40;56.20;;;;;;6142216;23;20033;-83
2021/12/22 12:54:24;;;;;;;20.90;15.20;;;8.90;55.20;;;;;;6162008;23;20029;-82
2021/12/22 12:57:15;;;;;;;21.85;16.13;;;8.90;54.90;;;;;;6183655;23;20372;-84
2021/12/22 13:00:18;;;;;;;30.35;14.07;;;8.40;55.90;;;;;;6179775;23;20036;-83
2021/12/22 13:03:07;;;;;;;20.38;15.35;;;9.00;54.90;;;;;;6192035;23;20031;-82
2021/12/22 13:06:06;;;;;;;25.95;16.42;;;8.70;54.90;;;;;;6190889;23;20040;-83
2021/12/22 13:09:19;;;;;;;21.98;15.30;;;8.70;55.80;;;;;;6213131;23;20035;-81
2021/12/22 13:12:17;;;;;;;22.77;15.60;;;8.90;55.00;;;;;;6214227;23;20043;-83
2021/12/22 13:18:28;;;;;;;22.58;15.27;;;8.40;56.90;;;;;;6214343;23;20114;-82
2021/12/22 13:21:26;;;;;;;22.17;14.52;;;9.00;55.40;;;;;;6224039;23;20071;-81
2021/12/22 13:24:22;;;;;;;22.52;15.93;;;9.20;54.40;;;;;;6228581;23;20335;-82
2021/12/22 13:27:30;;;;;;;21.90;15.50;;;8.90;54.30;;;;;;6208208;23;20093;-80
2021/12/22 13:30:25;;;;;;;;;;;7.60;57.60;;;;;;6228152;23;20020;-78
2021/12/22 13:33:19;;;;;;;23.73;15.43;;;7.90;57.40;;;;;;6239870;22;19904;-81
2021/12/22 13:36:10;;;;;;;;;;;8.30;56.60;;;;;;6227469;23;20024;-81
2021/12/22 13:39:01;;;;;;;24.83;17.15;;;7.90;57.10;;;;;;6227231;23;19924;-81
2021/12/22 13:41:54;;;;;;;24.77;16.95;;;7.50;58.20;;;;;;6227058;23;20025;-82
2021/12/22 13:44:48;;;;;;;23.80;16.38;;;7.90;57.50;;;;;;6207216;23;20028;-80
2021/12/22 13:47:39;;;;;;;25.98;17.40;;;7.90;57.50;;;;;;6175143;23;20137;-79
2021/12/22 13:50:31;;;;;;;25.70;17.38;;;7.70;57.70;;;;;;6216723;23;20033;-79
2021/12/22 13:53:24;;;;;;;24.23;16.87;;;7.50;59.20;;;;;;6215305;23;20090;-81
2021/12/22 13:56:17;;;;;;;23.48;15.93;;;7.50;59.00;;;;;;6212346;23;20766;-81
2021/12/22 13:59:12;;;;;;;28.17;17.58;;;7.50;58.70;;;;;;6213063;23;20031;-81
2021/12/22 14:02:05;;;;;;;24.00;17.02;;;7.60;59.10;;;;;;6211394;22;20093;-81
2021/12/22 14:05:12;;;;;;;26.92;17.55;;;7.70;58.40;;;;;;6142811;23;20108;-79
2021/12/22 14:07:59;;;;;;;24.90;17.33;;;7.40;58.50;;;;;;6167200;23;20479;-80
2021/12/22 14:10:48;;;;;;;25.25;16.70;;;6.50;60.80;;;;;;6143075;23;20087;-81
2021/12/22 14:13:36;;;;;;;23.58;16.67;;;6.40;62.70;;;;;;6143881;23;20071;-80
2021/12/22 14:16:28;;;;;;;25.50;17.02;;;7.20;61.10;;;;;;6165036;23;20036;-81
2021/12/22 14:19:19;;;;;;;22.90;16.48;;;7.70;58.50;;;;;;6183425;23;20173;-81
2021/12/22 14:22:19;;;;;;;25.52;16.75;;;7.30;59.10;;;;;;6163071;23;20045;-81
2021/12/22 14:25:22;;;;;;;24.70;16.95;;;7.50;59.00;;;;;;6162284;23;20032;-81
2021/12/22 14:28:24;;;;;;;22.83;16.42;;;7.20;59.40;;;;;;6183068;23;20362;-80
2021/12/22 14:31:14;;;;;;;27.00;17.70;;;6.90;60.20;;;;;;6142222;23;20405;-81
2021/12/22 14:34:08;;;;;;;26.55;17.63;;;6.70;60.80;;;;;;6142193;23;20029;-81
2021/12/22 14:37:01;;;;;;;29.98;18.30;;;6.60;62.00;;;;;;6182396;23;20400;-79
2021/12/22 14:39:54;;;;;;;25.27;17.48;;;6.10;63.30;;;;;;6142793;23;20036;-81
2021/12/22 14:43:13;;;;;;;27.67;17.35;;;6.00;64.20;;;;;;6162384;23;20032;-80
2021/12/22 14:46:05;;;;;;;30.70;17.92;;;5.10;66.20;;;;;;6185330;23;20048;-81
2021/12/22 14:48:54;;;;;;;28.25;17.40;;;5.10;67.10;;;;;;6162654;23;20016;-81
2021/12/22 14:51:49;;;;;;;25.00;17.10;;;5.30;66.80;;;;;;6164357;23;20313;-83
2021/12/22 14:54:44;;;;;;;30.05;18.63;;;5.00;67.40;;;;;;6161624;23;20025;-82
2021/12/22 14:57:36;;;;;;;28.08;17.90;;;4.60;69.00;;;;;;6125600;23;20092;-80
2021/12/22 15:00:26;;;;;;;33.90;20.27;;;4.30;70.00;;;;;;6144299;23;20025;-82
2021/12/22 15:03:17;;;;;;;32.08;19.88;;;3.70;72.60;;;;;;6192799;23;20068;-80
2021/12/22 15:06:11;;;;;;;32.10;19.13;;;3.00;76.90;;;;;;6213781;23;20432;-80
2021/12/22 15:09:04;;;;;;;33.08;19.63;;;2.60;79.70;;;;;;6210321;23;20024;-81
2021/12/22 15:12:06;;;;;;;31.70;19.88;;;2.10;82.30;;;;;;6214031;23;20025;-80
2021/12/22 15:14:56;;;;;;;36.38;20.17;;;1.50;85.90;;;;;;6213943;23;20033;-80
2021/12/22 15:17:49;;;;;;;39.13;21.38;;;1.10;89.80;;;;;;6190699;23;20425;-79
2021/12/22 15:20:38;;;;;;;34.78;20.45;;;0.70;92.60;;;;;;6192564;23;20035;-79
2021/12/22 15:23:27;;;;;;;38.08;21.65;;;0.30;96.20;;;;;;6213710;23;20060;-78
2021/12/22 15:26:22;;;;;;;39.65;21.60;;;-0.10;99.90;;;;;;6214077;23;20059;-77
2021/12/22 15:29:13;;;;;;;42.00;22.77;;;-0.30;99.90;;;;;;6214787;23;20039;-80
2021/12/22 15:32:00;;;;;;;41.88;22.63;;;-0.50;99.90;;;;;;6213317;23;20032;-80
2021/12/22 15:34:50;;;;;;;48.38;27.40;;;-0.70;99.90;;;;;;6196597;23;20028;-80
2021/12/22 15:37:50;;;;;;;45.15;23.17;;;-0.90;99.90;;;;;;6202016;23;20080;-81
2021/12/22 15:40:40;;;;;;;40.30;22.20;;;-1.10;99.90;;;;;;6215187;23;20020;-79
2021/12/22 15:43:29;;;;;;;40.28;22.25;;;-1.20;99.90;;;;;;6215977;23;20039;-79